sensor_id;sensor_type;location;lat;lon;timestamp;P1;durP1;ratioP1;P2;durP2;ratioP2
74196;SDS011;62555;52.678;4.900;2023-11-19T00:00:04;11.00;;;2.67;;
74196;SDS011;62555;52.678;4.900;2023-11-19T00:02:31;5.15;;;2.67;;
74196;SDS011;62555;52.678;4.900;2023-11-19T00:04:56;5.77;;;1.27;;
74196;SDS011;62555;52.678;4.900;2023-11-19T00:07:22;7.55;;;2.85;;
74196;SDS011;62555;52.678;4.900;2023-11-19T00:09:47;5.65;;;2.20;;
74196;SDS011;62555;52.678;4.900;2023-11-19T00:12:12;4.60;;;1.50;;
74196;SDS011;62555;52.678;4.900;2023-11-19T00:14:38;4.95;;;1.83;;
74196;SDS011;62555;52.678;4.900;2023-11-19T00:17:03;6.90;;;2.60;;
74196;SDS011;62555;52.678;4.900;2023-11-19T00:19:29;10.70;;;3.90;;
74196;SDS011;62555;52.678;4.900;2023-11-19T00:21:54;6.70;;;2.40;;
74196;SDS011;62555;52.678;4.900;2023-11-19T00:24:19;7.33;;;1.83;;
74196;SDS011;62555;52.678;4.900;2023-11-19T00:26:45;9.73;;;3.85;;
74196;SDS011;62555;52.678;4.900;2023-11-19T00:29:10;11.40;;;4.03;;
74196;SDS011;62555;52.678;4.900;2023-11-19T00:31:36;5.35;;;1.65;;
74196;SDS011;62555;52.678;4.900;2023-11-19T00:34:01;4.00;;;1.13;;
74196;SDS011;62555;52.678;4.900;2023-11-19T00:36:27;4.10;;;1.08;;
74196;SDS011;62555;52.678;4.900;2023-11-19T00:38:53;2.58;;;1.27;;
74196;SDS011;62555;52.678;4.900;2023-11-19T00:41:18;5.10;;;1.40;;
74196;SDS011;62555;52.678;4.900;2023-11-19T00:43:44;1.95;;;0.85;;
74196;SDS011;62555;52.678;4.900;2023-11-19T00:46:09;3.53;;;1.20;;
74196;SDS011;62555;52.678;4.900;2023-11-19T00:48:35;2.55;;;0.95;;
74196;SDS011;62555;52.678;4.900;2023-11-19T00:51:01;3.77;;;1.10;;
74196;SDS011;62555;52.678;4.900;2023-11-19T00:53:26;2.55;;;1.25;;
74196;SDS011;62555;52.678;4.900;2023-11-19T00:55:51;2.70;;;1.27;;
74196;SDS011;62555;52.678;4.900;2023-11-19T00:58:16;4.18;;;1.25;;
74196;SDS011;62555;52.678;4.900;2023-11-19T01:00:43;4.35;;;1.90;;
74196;SDS011;62555;52.678;4.900;2023-11-19T01:03:08;2.58;;;1.10;;
74196;SDS011;62555;52.678;4.900;2023-11-19T01:05:34;2.80;;;1.10;;
74196;SDS011;62555;52.678;4.900;2023-11-19T01:07:59;2.38;;;1.42;;
74196;SDS011;62555;52.678;4.900;2023-11-19T01:10:24;2.07;;;0.83;;
74196;SDS011;62555;52.678;4.900;2023-11-19T01:12:50;3.22;;;0.70;;
74196;SDS011;62555;52.678;4.900;2023-11-19T01:15:15;3.70;;;1.23;;
74196;SDS011;62555;52.678;4.900;2023-11-19T01:17:43;4.28;;;1.20;;
74196;SDS011;62555;52.678;4.900;2023-11-19T01:20:08;3.78;;;1.30;;
74196;SDS011;62555;52.678;4.900;2023-11-19T01:22:37;3.83;;;1.10;;
74196;SDS011;62555;52.678;4.900;2023-11-19T01:25:02;5.70;;;1.10;;
74196;SDS011;62555;52.678;4.900;2023-11-19T01:27:27;2.08;;;1.00;;
74196;SDS011;62555;52.678;4.900;2023-11-19T01:29:53;2.05;;;1.20;;
74196;SDS011;62555;52.678;4.900;2023-11-19T01:32:18;3.03;;;1.10;;
74196;SDS011;62555;52.678;4.900;2023-11-19T01:34:43;2.22;;;1.33;;
74196;SDS011;62555;52.678;4.900;2023-11-19T01:37:09;4.90;;;1.57;;
74196;SDS011;62555;52.678;4.900;2023-11-19T01:39:35;2.72;;;0.90;;
74196;SDS011;62555;52.678;4.900;2023-11-19T01:42:00;2.87;;;1.23;;
74196;SDS011;62555;52.678;4.900;2023-11-19T01:44:25;2.47;;;1.50;;
74196;SDS011;62555;52.678;4.900;2023-11-19T01:46:50;4.53;;;1.55;;
74196;SDS011;62555;52.678;4.900;2023-11-19T01:49:16;5.07;;;1.48;;
74196;SDS011;62555;52.678;4.900;2023-11-19T01:51:42;3.25;;;1.23;;
74196;SDS011;62555;52.678;4.900;2023-11-19T01:54:08;5.57;;;1.25;;
74196;SDS011;62555;52.678;4.900;2023-11-19T01:56:33;3.78;;;1.30;;
74196;SDS011;62555;52.678;4.900;2023-11-19T01:58:58;4.20;;;1.55;;
74196;SDS011;62555;52.678;4.900;2023-11-19T02:01:24;4.43;;;1.48;;
74196;SDS011;62555;52.678;4.900;2023-11-19T02:03:49;6.43;;;1.93;;
74196;SDS011;62555;52.678;4.900;2023-11-19T02:06:14;7.03;;;1.73;;
74196;SDS011;62555;52.678;4.900;2023-11-19T02:08:40;8.02;;;2.17;;
74196;SDS011;62555;52.678;4.900;2023-11-19T02:11:05;6.87;;;2.03;;
74196;SDS011;62555;52.678;4.900;2023-11-19T02:13:32;4.10;;;1.63;;
74196;SDS011;62555;52.678;4.900;2023-11-19T02:15:57;6.93;;;2.15;;
74196;SDS011;62555;52.678;4.900;2023-11-19T02:18:23;6.40;;;2.40;;
74196;SDS011;62555;52.678;4.900;2023-11-19T02:20:52;6.18;;;2.45;;
74196;SDS011;62555;52.678;4.900;2023-11-19T02:23:18;7.07;;;2.05;;
74196;SDS011;62555;52.678;4.900;2023-11-19T02:25:52;7.47;;;2.58;;
74196;SDS011;62555;52.678;4.900;2023-11-19T02:28:20;6.55;;;2.10;;
74196;SDS011;62555;52.678;4.900;2023-11-19T02:30:45;9.33;;;2.80;;
74196;SDS011;62555;52.678;4.900;2023-11-19T02:33:10;6.93;;;2.13;;
74196;SDS011;62555;52.678;4.900;2023-11-19T02:35:35;10.57;;;2.90;;
74196;SDS011;62555;52.678;4.900;2023-11-19T02:38:01;7.27;;;2.23;;
74196;SDS011;62555;52.678;4.900;2023-11-19T02:40:26;9.20;;;2.83;;
74196;SDS011;62555;52.678;4.900;2023-11-19T02:42:54;8.07;;;2.20;;
74196;SDS011;62555;52.678;4.900;2023-11-19T02:45:20;7.38;;;2.38;;
74196;SDS011;62555;52.678;4.900;2023-11-19T02:47:47;7.13;;;2.83;;
74196;SDS011;62555;52.678;4.900;2023-11-19T02:50:12;9.18;;;2.58;;
74196;SDS011;62555;52.678;4.900;2023-11-19T02:52:42;12.15;;;2.35;;
74196;SDS011;62555;52.678;4.900;2023-11-19T02:55:08;8.13;;;2.28;;
74196;SDS011;62555;52.678;4.900;2023-11-19T02:57:40;7.43;;;2.30;;
74196;SDS011;62555;52.678;4.900;2023-11-19T03:00:16;9.38;;;2.97;;
74196;SDS011;62555;52.678;4.900;2023-11-19T03:02:42;8.70;;;3.15;;
74196;SDS011;62555;52.678;4.900;2023-11-19T03:05:13;8.68;;;2.53;;
74196;SDS011;62555;52.678;4.900;2023-11-19T03:07:43;7.32;;;2.45;;
74196;SDS011;62555;52.678;4.900;2023-11-19T03:10:11;10.90;;;3.25;;
74196;SDS011;62555;52.678;4.900;2023-11-19T03:12:42;9.90;;;2.83;;
74196;SDS011;62555;52.678;4.900;2023-11-19T03:15:08;12.35;;;3.25;;
74196;SDS011;62555;52.678;4.900;2023-11-19T03:17:39;10.68;;;2.88;;
74196;SDS011;62555;52.678;4.900;2023-11-19T03:20:05;7.40;;;2.65;;
74196;SDS011;62555;52.678;4.900;2023-11-19T03:22:31;8.55;;;3.20;;
74196;SDS011;62555;52.678;4.900;2023-11-19T03:24:59;8.45;;;2.40;;
74196;SDS011;62555;52.678;4.900;2023-11-19T03:27:24;9.45;;;3.03;;
74196;SDS011;62555;52.678;4.900;2023-11-19T03:29:49;12.43;;;3.60;;
74196;SDS011;62555;52.678;4.900;2023-11-19T03:32:14;8.13;;;2.53;;
74196;SDS011;62555;52.678;4.900;2023-11-19T03:34:40;8.13;;;2.85;;
74196;SDS011;62555;52.678;4.900;2023-11-19T03:37:05;9.73;;;2.92;;
74196;SDS011;62555;52.678;4.900;2023-11-19T03:39:30;7.95;;;2.30;;
74196;SDS011;62555;52.678;4.900;2023-11-19T03:41:56;10.40;;;3.30;;
74196;SDS011;62555;52.678;4.900;2023-11-19T03:44:21;10.10;;;3.33;;
74196;SDS011;62555;52.678;4.900;2023-11-19T03:46:46;11.30;;;3.17;;
74196;SDS011;62555;52.678;4.900;2023-11-19T03:49:12;10.50;;;2.33;;
74196;SDS011;62555;52.678;4.900;2023-11-19T03:51:37;9.13;;;2.83;;
74196;SDS011;62555;52.678;4.900;2023-11-19T03:54:02;11.38;;;3.05;;
74196;SDS011;62555;52.678;4.900;2023-11-19T03:56:27;13.10;;;3.08;;
74196;SDS011;62555;52.678;4.900;2023-11-19T03:58:52;10.93;;;3.37;;
74196;SDS011;62555;52.678;4.900;2023-11-19T04:01:18;14.15;;;3.60;;
74196;SDS011;62555;52.678;4.900;2023-11-19T04:03:43;10.67;;;2.80;;
74196;SDS011;62555;52.678;4.900;2023-11-19T04:06:09;10.82;;;3.50;;
74196;SDS011;62555;52.678;4.900;2023-11-19T04:08:34;13.02;;;3.58;;
74196;SDS011;62555;52.678;4.900;2023-11-19T04:11:00;13.40;;;3.53;;
74196;SDS011;62555;52.678;4.900;2023-11-19T04:13:26;12.70;;;2.65;;
74196;SDS011;62555;52.678;4.900;2023-11-19T04:15:51;9.53;;;2.90;;
74196;SDS011;62555;52.678;4.900;2023-11-19T04:18:16;15.50;;;3.73;;
74196;SDS011;62555;52.678;4.900;2023-11-19T04:20:41;11.57;;;3.75;;
74196;SDS011;62555;52.678;4.900;2023-11-19T04:23:07;13.95;;;3.35;;
74196;SDS011;62555;52.678;4.900;2023-11-19T04:25:33;12.48;;;3.17;;
74196;SDS011;62555;52.678;4.900;2023-11-19T04:27:58;10.27;;;3.03;;
74196;SDS011;62555;52.678;4.900;2023-11-19T04:30:23;10.30;;;2.95;;
74196;SDS011;62555;52.678;4.900;2023-11-19T04:32:48;15.00;;;3.90;;
74196;SDS011;62555;52.678;4.900;2023-11-19T04:35:13;12.32;;;5.00;;
74196;SDS011;62555;52.678;4.900;2023-11-19T04:37:39;8.02;;;2.97;;
74196;SDS011;62555;52.678;4.900;2023-11-19T04:40:04;10.13;;;3.53;;
74196;SDS011;62555;52.678;4.900;2023-11-19T04:42:29;11.88;;;2.85;;
74196;SDS011;62555;52.678;4.900;2023-11-19T04:44:55;11.63;;;3.10;;
74196;SDS011;62555;52.678;4.900;2023-11-19T04:47:20;11.13;;;2.83;;
74196;SDS011;62555;52.678;4.900;2023-11-19T04:49:45;9.27;;;2.70;;
74196;SDS011;62555;52.678;4.900;2023-11-19T04:52:10;12.10;;;3.50;;
74196;SDS011;62555;52.678;4.900;2023-11-19T04:54:40;9.52;;;3.05;;
74196;SDS011;62555;52.678;4.900;2023-11-19T04:57:05;11.40;;;3.15;;
74196;SDS011;62555;52.678;4.900;2023-11-19T04:59:30;10.27;;;3.63;;
74196;SDS011;62555;52.678;4.900;2023-11-19T05:01:56;9.93;;;3.27;;
74196;SDS011;62555;52.678;4.900;2023-11-19T05:04:21;11.47;;;3.20;;
74196;SDS011;62555;52.678;4.900;2023-11-19T05:06:46;9.77;;;3.17;;
74196;SDS011;62555;52.678;4.900;2023-11-19T05:09:11;14.07;;;3.90;;
74196;SDS011;62555;52.678;4.900;2023-11-19T05:11:38;10.25;;;3.15;;
74196;SDS011;62555;52.678;4.900;2023-11-19T05:14:04;11.70;;;3.38;;
74196;SDS011;62555;52.678;4.900;2023-11-19T05:16:29;11.88;;;3.38;;
74196;SDS011;62555;52.678;4.900;2023-11-19T05:18:54;8.43;;;2.28;;
74196;SDS011;62555;52.678;4.900;2023-11-19T05:21:20;10.97;;;3.37;;
74196;SDS011;62555;52.678;4.900;2023-11-19T05:23:45;12.07;;;3.23;;
74196;SDS011;62555;52.678;4.900;2023-11-19T05:26:17;12.75;;;3.38;;
74196;SDS011;62555;52.678;4.900;2023-11-19T05:28:42;13.10;;;3.53;;
74196;SDS011;62555;52.678;4.900;2023-11-19T05:31:07;11.03;;;3.40;;
74196;SDS011;62555;52.678;4.900;2023-11-19T05:33:32;12.38;;;3.20;;
74196;SDS011;62555;52.678;4.900;2023-11-19T05:35:57;10.80;;;3.25;;
74196;SDS011;62555;52.678;4.900;2023-11-19T05:38:23;10.33;;;2.60;;
74196;SDS011;62555;52.678;4.900;2023-11-19T05:40:48;11.43;;;2.97;;
74196;SDS011;62555;52.678;4.900;2023-11-19T05:43:13;11.73;;;2.90;;
74196;SDS011;62555;52.678;4.900;2023-11-19T05:45:39;14.05;;;4.47;;
74196;SDS011;62555;52.678;4.900;2023-11-19T05:48:05;13.85;;;2.72;;
74196;SDS011;62555;52.678;4.900;2023-11-19T05:50:30;10.03;;;2.83;;
74196;SDS011;62555;52.678;4.900;2023-11-19T05:52:55;12.25;;;3.05;;
74196;SDS011;62555;52.678;4.900;2023-11-19T05:55:20;7.85;;;2.90;;
74196;SDS011;62555;52.678;4.900;2023-11-19T05:57:45;11.50;;;2.77;;
74196;SDS011;62555;52.678;4.900;2023-11-19T06:00:11;10.63;;;2.60;;
74196;SDS011;62555;52.678;4.900;2023-11-19T06:02:37;9.65;;;2.60;;
74196;SDS011;62555;52.678;4.900;2023-11-19T06:05:03;9.05;;;2.58;;
74196;SDS011;62555;52.678;4.900;2023-11-19T06:07:30;12.15;;;3.33;;
74196;SDS011;62555;52.678;4.900;2023-11-19T06:09:55;10.67;;;2.63;;
74196;SDS011;62555;52.678;4.900;2023-11-19T06:12:20;14.43;;;3.83;;
74196;SDS011;62555;52.678;4.900;2023-11-19T06:14:46;10.88;;;2.63;;
74196;SDS011;62555;52.678;4.900;2023-11-19T06:17:11;12.93;;;3.03;;
74196;SDS011;62555;52.678;4.900;2023-11-19T06:19:37;11.60;;;2.75;;
74196;SDS011;62555;52.678;4.900;2023-11-19T06:22:03;12.05;;;3.25;;
74196;SDS011;62555;52.678;4.900;2023-11-19T06:24:28;9.75;;;2.78;;
74196;SDS011;62555;52.678;4.900;2023-11-19T06:26:53;7.82;;;2.28;;
74196;SDS011;62555;52.678;4.900;2023-11-19T06:29:18;12.20;;;3.42;;
74196;SDS011;62555;52.678;4.900;2023-11-19T06:31:44;12.15;;;3.22;;
74196;SDS011;62555;52.678;4.900;2023-11-19T06:34:10;12.70;;;3.10;;
74196;SDS011;62555;52.678;4.900;2023-11-19T06:36:35;12.77;;;3.10;;
74196;SDS011;62555;52.678;4.900;2023-11-19T06:39:00;13.13;;;3.40;;
74196;SDS011;62555;52.678;4.900;2023-11-19T06:41:25;11.60;;;3.27;;
74196;SDS011;62555;52.678;4.900;2023-11-19T06:43:50;11.02;;;3.05;;
74196;SDS011;62555;52.678;4.900;2023-11-19T06:46:17;11.55;;;2.63;;
74196;SDS011;62555;52.678;4.900;2023-11-19T06:48:42;11.52;;;3.05;;
74196;SDS011;62555;52.678;4.900;2023-11-19T06:51:09;11.57;;;3.75;;
74196;SDS011;62555;52.678;4.900;2023-11-19T06:53:34;14.00;;;3.50;;
74196;SDS011;62555;52.678;4.900;2023-11-19T06:55:59;10.98;;;3.10;;
74196;SDS011;62555;52.678;4.900;2023-11-19T06:58:25;14.18;;;3.38;;
74196;SDS011;62555;52.678;4.900;2023-11-19T07:00:50;12.90;;;2.80;;
74196;SDS011;62555;52.678;4.900;2023-11-19T07:03:16;13.55;;;3.58;;
74196;SDS011;62555;52.678;4.900;2023-11-19T07:05:41;10.20;;;2.90;;
74196;SDS011;62555;52.678;4.900;2023-11-19T07:08:06;9.23;;;2.80;;
74196;SDS011;62555;52.678;4.900;2023-11-19T07:10:35;9.48;;;2.72;;
74196;SDS011;62555;52.678;4.900;2023-11-19T07:13:00;18.00;;;3.93;;
74196;SDS011;62555;52.678;4.900;2023-11-19T07:15:25;9.30;;;2.90;;
74196;SDS011;62555;52.678;4.900;2023-11-19T07:17:50;10.20;;;2.30;;
74196;SDS011;62555;52.678;4.900;2023-11-19T07:20:15;12.43;;;3.40;;
74196;SDS011;62555;52.678;4.900;2023-11-19T07:22:44;10.47;;;2.60;;
74196;SDS011;62555;52.678;4.900;2023-11-19T07:25:14;13.50;;;4.13;;
74196;SDS011;62555;52.678;4.900;2023-11-19T07:27:40;12.77;;;3.35;;
74196;SDS011;62555;52.678;4.900;2023-11-19T07:30:05;12.23;;;2.90;;
74196;SDS011;62555;52.678;4.900;2023-11-19T07:32:32;14.32;;;3.17;;
74196;SDS011;62555;52.678;4.900;2023-11-19T07:34:57;11.93;;;3.38;;
74196;SDS011;62555;52.678;4.900;2023-11-19T07:37:22;12.45;;;3.08;;
74196;SDS011;62555;52.678;4.900;2023-11-19T07:39:47;11.60;;;3.00;;
74196;SDS011;62555;52.678;4.900;2023-11-19T07:42:13;13.70;;;4.20;;
74196;SDS011;62555;52.678;4.900;2023-11-19T07:44:38;14.23;;;3.10;;
74196;SDS011;62555;52.678;4.900;2023-11-19T07:47:03;13.57;;;3.03;;
74196;SDS011;62555;52.678;4.900;2023-11-19T07:49:28;10.73;;;2.97;;
74196;SDS011;62555;52.678;4.900;2023-11-19T07:51:53;14.27;;;3.70;;
74196;SDS011;62555;52.678;4.900;2023-11-19T07:54:19;10.27;;;3.00;;
74196;SDS011;62555;52.678;4.900;2023-11-19T07:56:46;10.38;;;3.13;;
74196;SDS011;62555;52.678;4.900;2023-11-19T07:59:11;14.30;;;3.25;;
74196;SDS011;62555;52.678;4.900;2023-11-19T08:01:36;10.93;;;2.83;;
74196;SDS011;62555;52.678;4.900;2023-11-19T08:04:02;14.48;;;3.35;;
74196;SDS011;62555;52.678;4.900;2023-11-19T08:06:27;11.80;;;3.60;;
74196;SDS011;62555;52.678;4.900;2023-11-19T08:08:52;11.18;;;3.63;;
74196;SDS011;62555;52.678;4.900;2023-11-19T08:11:18;15.80;;;4.03;;
74196;SDS011;62555;52.678;4.900;2023-11-19T08:13:44;10.82;;;3.75;;
74196;SDS011;62555;52.678;4.900;2023-11-19T08:16:09;11.63;;;2.97;;
74196;SDS011;62555;52.678;4.900;2023-11-19T08:18:35;9.93;;;2.67;;
74196;SDS011;62555;52.678;4.900;2023-11-19T08:21:00;14.07;;;3.72;;
74196;SDS011;62555;52.678;4.900;2023-11-19T08:23:25;12.80;;;2.97;;
74196;SDS011;62555;52.678;4.900;2023-11-19T08:25:51;10.38;;;3.00;;
74196;SDS011;62555;52.678;4.900;2023-11-19T08:28:17;12.10;;;3.03;;
74196;SDS011;62555;52.678;4.900;2023-11-19T08:30:42;11.37;;;2.90;;
74196;SDS011;62555;52.678;4.900;2023-11-19T08:33:09;12.05;;;3.65;;
74196;SDS011;62555;52.678;4.900;2023-11-19T08:35:34;11.50;;;3.53;;
74196;SDS011;62555;52.678;4.900;2023-11-19T08:37:59;9.82;;;3.15;;
74196;SDS011;62555;52.678;4.900;2023-11-19T08:40:24;9.88;;;2.90;;
74196;SDS011;62555;52.678;4.900;2023-11-19T08:42:50;10.55;;;2.97;;
74196;SDS011;62555;52.678;4.900;2023-11-19T08:45:16;10.18;;;2.67;;
74196;SDS011;62555;52.678;4.900;2023-11-19T08:47:41;10.17;;;3.13;;
74196;SDS011;62555;52.678;4.900;2023-11-19T08:50:06;16.02;;;3.42;;
74196;SDS011;62555;52.678;4.900;2023-11-19T08:52:31;8.52;;;2.65;;
74196;SDS011;62555;52.678;4.900;2023-11-19T08:54:56;7.30;;;2.87;;
74196;SDS011;62555;52.678;4.900;2023-11-19T08:57:22;8.40;;;2.63;;
74196;SDS011;62555;52.678;4.900;2023-11-19T08:59:47;11.70;;;2.97;;
74196;SDS011;62555;52.678;4.900;2023-11-19T09:02:12;12.32;;;3.33;;
74196;SDS011;62555;52.678;4.900;2023-11-19T09:04:37;14.07;;;3.17;;
74196;SDS011;62555;52.678;4.900;2023-11-19T09:07:02;11.63;;;3.10;;
74196;SDS011;62555;52.678;4.900;2023-11-19T09:09:28;11.13;;;2.95;;
74196;SDS011;62555;52.678;4.900;2023-11-19T09:11:53;11.82;;;4.00;;
74196;SDS011;62555;52.678;4.900;2023-11-19T09:14:19;11.18;;;3.03;;
74196;SDS011;62555;52.678;4.900;2023-11-19T09:16:49;14.15;;;3.70;;
74196;SDS011;62555;52.678;4.900;2023-11-19T09:19:14;10.63;;;3.88;;
74196;SDS011;62555;52.678;4.900;2023-11-19T09:21:39;9.10;;;2.53;;
74196;SDS011;62555;52.678;4.900;2023-11-19T09:24:04;14.77;;;3.33;;
74196;SDS011;62555;52.678;4.900;2023-11-19T09:26:30;11.73;;;2.60;;
74196;SDS011;62555;52.678;4.900;2023-11-19T09:28:55;10.45;;;3.03;;
74196;SDS011;62555;52.678;4.900;2023-11-19T09:31:21;13.50;;;3.22;;
74196;SDS011;62555;52.678;4.900;2023-11-19T09:33:46;13.68;;;3.10;;
74196;SDS011;62555;52.678;4.900;2023-11-19T09:36:14;8.65;;;2.60;;
74196;SDS011;62555;52.678;4.900;2023-11-19T09:38:40;11.00;;;3.30;;
74196;SDS011;62555;52.678;4.900;2023-11-19T09:41:05;11.80;;;3.22;;
74196;SDS011;62555;52.678;4.900;2023-11-19T09:43:34;12.13;;;3.88;;
74196;SDS011;62555;52.678;4.900;2023-11-19T09:46:03;10.35;;;3.00;;
74196;SDS011;62555;52.678;4.900;2023-11-19T09:48:32;10.70;;;3.83;;
74196;SDS011;62555;52.678;4.900;2023-11-19T09:50:57;9.68;;;3.22;;
74196;SDS011;62555;52.678;4.900;2023-11-19T09:53:24;10.10;;;2.70;;
74196;SDS011;62555;52.678;4.900;2023-11-19T09:55:49;10.45;;;3.33;;
74196;SDS011;62555;52.678;4.900;2023-11-19T09:58:15;10.45;;;3.55;;
74196;SDS011;62555;52.678;4.900;2023-11-19T10:00:40;8.13;;;2.58;;
74196;SDS011;62555;52.678;4.900;2023-11-19T10:03:06;12.07;;;3.70;;
74196;SDS011;62555;52.678;4.900;2023-11-19T10:05:32;8.85;;;2.65;;
74196;SDS011;62555;52.678;4.900;2023-11-19T10:07:57;10.43;;;2.60;;
74196;SDS011;62555;52.678;4.900;2023-11-19T10:10:23;11.73;;;2.55;;
74196;SDS011;62555;52.678;4.900;2023-11-19T10:12:50;10.07;;;3.53;;
74196;SDS011;62555;52.678;4.900;2023-11-19T10:15:22;9.52;;;2.45;;
74196;SDS011;62555;52.678;4.900;2023-11-19T10:17:49;10.32;;;2.95;;
74196;SDS011;62555;52.678;4.900;2023-11-19T10:20:14;9.65;;;2.60;;
74196;SDS011;62555;52.678;4.900;2023-11-19T10:22:39;8.63;;;2.30;;
74196;SDS011;62555;52.678;4.900;2023-11-19T10:25:05;10.33;;;2.67;;
74196;SDS011;62555;52.678;4.900;2023-11-19T10:27:46;8.82;;;2.78;;
74196;SDS011;62555;52.678;4.900;2023-11-19T10:30:11;9.97;;;3.47;;
74196;SDS011;62555;52.678;4.900;2023-11-19T10:32:36;11.68;;;2.92;;
74196;SDS011;62555;52.678;4.900;2023-11-19T10:35:05;12.13;;;3.03;;
74196;SDS011;62555;52.678;4.900;2023-11-19T10:37:31;8.27;;;2.22;;
74196;SDS011;62555;52.678;4.900;2023-11-19T10:39:57;10.25;;;3.35;;
74196;SDS011;62555;52.678;4.900;2023-11-19T10:42:22;9.80;;;2.95;;
74196;SDS011;62555;52.678;4.900;2023-11-19T10:44:48;12.65;;;3.00;;
74196;SDS011;62555;52.678;4.900;2023-11-19T10:47:13;10.65;;;2.78;;
74196;SDS011;62555;52.678;4.900;2023-11-19T10:49:39;10.55;;;2.83;;
74196;SDS011;62555;52.678;4.900;2023-11-19T10:52:05;13.38;;;2.83;;
74196;SDS011;62555;52.678;4.900;2023-11-19T10:54:30;9.67;;;2.50;;
74196;SDS011;62555;52.678;4.900;2023-11-19T10:56:58;10.20;;;2.72;;
74196;SDS011;62555;52.678;4.900;2023-11-19T10:59:24;9.75;;;2.83;;
74196;SDS011;62555;52.678;4.900;2023-11-19T11:01:50;10.90;;;3.35;;
74196;SDS011;62555;52.678;4.900;2023-11-19T11:04:22;8.55;;;2.30;;
74196;SDS011;62555;52.678;4.900;2023-11-19T11:06:48;9.18;;;2.05;;
74196;SDS011;62555;52.678;4.900;2023-11-19T11:09:13;11.90;;;3.00;;
74196;SDS011;62555;52.678;4.900;2023-11-19T11:11:40;8.45;;;2.60;;
74196;SDS011;62555;52.678;4.900;2023-11-19T11:14:05;10.47;;;3.27;;
74196;SDS011;62555;52.678;4.900;2023-11-19T11:16:32;9.65;;;2.83;;
74196;SDS011;62555;52.678;4.900;2023-11-19T11:18:57;10.77;;;3.13;;
74196;SDS011;62555;52.678;4.900;2023-11-19T11:21:23;12.15;;;2.28;;
74196;SDS011;62555;52.678;4.900;2023-11-19T11:29:14;7.43;;;2.63;;
74196;SDS011;62555;52.678;4.900;2023-11-19T11:37:29;13.25;;;3.92;;
74196;SDS011;62555;52.678;4.900;2023-11-19T11:39:57;7.60;;;3.35;;
74196;SDS011;62555;52.678;4.900;2023-11-19T11:45:08;8.98;;;3.50;;
74196;SDS011;62555;52.678;4.900;2023-11-19T11:50:14;7.50;;;2.63;;
74196;SDS011;62555;52.678;4.900;2023-11-19T11:55:36;9.57;;;2.85;;
74196;SDS011;62555;52.678;4.900;2023-11-19T11:58:05;8.48;;;2.65;;
74196;SDS011;62555;52.678;4.900;2023-11-19T12:00:37;9.32;;;2.42;;
74196;SDS011;62555;52.678;4.900;2023-11-19T12:03:02;10.98;;;3.50;;
74196;SDS011;62555;52.678;4.900;2023-11-19T12:05:29;20.55;;;5.95;;
74196;SDS011;62555;52.678;4.900;2023-11-19T12:07:59;23.77;;;7.32;;
74196;SDS011;62555;52.678;4.900;2023-11-19T12:10:26;56.67;;;22.02;;
74196;SDS011;62555;52.678;4.900;2023-11-19T12:12:57;34.27;;;7.67;;
74196;SDS011;62555;52.678;4.900;2023-11-19T12:15:23;21.95;;;5.38;;
74196;SDS011;62555;52.678;4.900;2023-11-19T12:20:16;20.23;;;5.83;;
74196;SDS011;62555;52.678;4.900;2023-11-19T12:22:41;26.15;;;5.68;;
74196;SDS011;62555;52.678;4.900;2023-11-19T12:25:07;21.55;;;4.43;;
74196;SDS011;62555;52.678;4.900;2023-11-19T12:27:33;28.25;;;4.53;;
74196;SDS011;62555;52.678;4.900;2023-11-19T12:29:59;20.83;;;5.23;;
74196;SDS011;62555;52.678;4.900;2023-11-19T12:32:24;28.52;;;6.00;;
74196;SDS011;62555;52.678;4.900;2023-11-19T12:34:49;18.30;;;4.03;;
74196;SDS011;62555;52.678;4.900;2023-11-19T12:37:15;84.53;;;23.33;;
74196;SDS011;62555;52.678;4.900;2023-11-19T12:39:40;62.17;;;16.02;;
74196;SDS011;62555;52.678;4.900;2023-11-19T12:42:05;44.63;;;15.43;;
74196;SDS011;62555;52.678;4.900;2023-11-19T12:44:30;30.00;;;9.77;;
74196;SDS011;62555;52.678;4.900;2023-11-19T12:47:13;25.98;;;8.82;;
74196;SDS011;62555;52.678;4.900;2023-11-19T12:49:39;17.90;;;5.20;;
74196;SDS011;62555;52.678;4.900;2023-11-19T12:52:13;10.40;;;2.47;;
74196;SDS011;62555;52.678;4.900;2023-11-19T12:54:38;10.30;;;3.60;;
74196;SDS011;62555;52.678;4.900;2023-11-19T12:57:04;12.37;;;2.70;;
74196;SDS011;62555;52.678;4.900;2023-11-19T12:59:30;10.43;;;2.15;;
74196;SDS011;62555;52.678;4.900;2023-11-19T13:01:58;8.57;;;1.55;;
74196;SDS011;62555;52.678;4.900;2023-11-19T13:04:27;4.72;;;1.20;;
74196;SDS011;62555;52.678;4.900;2023-11-19T13:06:52;3.22;;;0.75;;
74196;SDS011;62555;52.678;4.900;2023-11-19T13:09:24;4.23;;;1.17;;
74196;SDS011;62555;52.678;4.900;2023-11-19T13:11:49;3.63;;;1.08;;
74196;SDS011;62555;52.678;4.900;2023-11-19T13:14:14;4.50;;;1.37;;
74196;SDS011;62555;52.678;4.900;2023-11-19T13:16:40;3.17;;;0.80;;
74196;SDS011;62555;52.678;4.900;2023-11-19T13:19:05;2.85;;;1.17;;
74196;SDS011;62555;52.678;4.900;2023-11-19T13:21:30;2.60;;;1.00;;
74196;SDS011;62555;52.678;4.900;2023-11-19T13:23:56;2.63;;;0.85;;
74196;SDS011;62555;52.678;4.900;2023-11-19T13:26:21;4.18;;;1.23;;
74196;SDS011;62555;52.678;4.900;2023-11-19T13:28:47;3.92;;;1.25;;
74196;SDS011;62555;52.678;4.900;2023-11-19T13:31:12;6.68;;;1.50;;
74196;SDS011;62555;52.678;4.900;2023-11-19T13:33:37;7.30;;;1.93;;
74196;SDS011;62555;52.678;4.900;2023-11-19T13:36:03;78.07;;;51.58;;
74196;SDS011;62555;52.678;4.900;2023-11-19T13:38:34;23.08;;;9.73;;
74196;SDS011;62555;52.678;4.900;2023-11-19T13:41:00;31.42;;;10.45;;
74196;SDS011;62555;52.678;4.900;2023-11-19T13:43:25;19.98;;;6.55;;
74196;SDS011;62555;52.678;4.900;2023-11-19T13:48:18;6.07;;;1.40;;
74196;SDS011;62555;52.678;4.900;2023-11-19T13:50:43;3.85;;;0.65;;
74196;SDS011;62555;52.678;4.900;2023-11-19T13:53:08;2.47;;;0.52;;
74196;SDS011;62555;52.678;4.900;2023-11-19T13:55:33;19.02;;;6.25;;
74196;SDS011;62555;52.678;4.900;2023-11-19T13:57:58;35.87;;;14.87;;
74196;SDS011;62555;52.678;4.900;2023-11-19T14:00:24;12.07;;;2.80;;
74196;SDS011;62555;52.678;4.900;2023-11-19T14:02:50;7.20;;;1.77;;
74196;SDS011;62555;52.678;4.900;2023-11-19T14:05:16;6.50;;;1.42;;
74196;SDS011;62555;52.678;4.900;2023-11-19T14:07:43;7.20;;;1.52;;
74196;SDS011;62555;52.678;4.900;2023-11-19T14:10:09;6.37;;;1.67;;
74196;SDS011;62555;52.678;4.900;2023-11-19T14:12:36;5.82;;;1.90;;
74196;SDS011;62555;52.678;4.900;2023-11-19T14:15:02;7.28;;;1.73;;
74196;SDS011;62555;52.678;4.900;2023-11-19T14:17:27;5.90;;;1.95;;
74196;SDS011;62555;52.678;4.900;2023-11-19T14:19:52;7.03;;;1.73;;
74196;SDS011;62555;52.678;4.900;2023-11-19T14:22:17;5.97;;;2.13;;
74196;SDS011;62555;52.678;4.900;2023-11-19T14:24:43;6.33;;;2.17;;
74196;SDS011;62555;52.678;4.900;2023-11-19T14:27:08;4.93;;;1.43;;
74196;SDS011;62555;52.678;4.900;2023-11-19T14:29:34;5.53;;;2.20;;
74196;SDS011;62555;52.678;4.900;2023-11-19T14:32:00;5.00;;;1.90;;
74196;SDS011;62555;52.678;4.900;2023-11-19T14:34:25;7.18;;;2.47;;
74196;SDS011;62555;52.678;4.900;2023-11-19T14:36:51;6.13;;;1.63;;
74196;SDS011;62555;52.678;4.900;2023-11-19T14:39:16;7.60;;;1.90;;
74196;SDS011;62555;52.678;4.900;2023-11-19T14:41:42;8.33;;;2.37;;
74196;SDS011;62555;52.678;4.900;2023-11-19T14:44:07;5.55;;;1.75;;
74196;SDS011;62555;52.678;4.900;2023-11-19T14:46:33;6.85;;;1.80;;
74196;SDS011;62555;52.678;4.900;2023-11-19T14:48:59;6.70;;;2.10;;
74196;SDS011;62555;52.678;4.900;2023-11-19T14:51:24;5.80;;;1.93;;
74196;SDS011;62555;52.678;4.900;2023-11-19T14:53:50;5.55;;;2.15;;
74196;SDS011;62555;52.678;4.900;2023-11-19T14:56:15;6.68;;;2.20;;